createdAt,value
2018-11-11T00:00:50.497Z,96.27
2018-11-11T00:03:18.642Z,85.90
2018-11-11T00:05:46.804Z,84.00
2018-11-11T00:08:14.961Z,97.37
2018-11-11T00:10:43.113Z,81.63
2018-11-11T00:13:11.294Z,78.40
2018-11-11T00:15:39.527Z,85.40
2018-11-11T00:18:07.811Z,83.10
2018-11-11T00:20:35.944Z,79.50
2018-11-11T00:23:04.117Z,82.63
2018-11-11T00:25:32.279Z,79.40
2018-11-11T00:28:00.462Z,77.50
2018-11-11T00:30:28.619Z,86.43
2018-11-11T00:32:56.779Z,80.10
2018-11-11T00:35:24.954Z,83.70
2018-11-11T00:37:53.121Z,82.53
2018-11-11T00:40:21.339Z,77.13
2018-11-11T00:42:49.552Z,85.77
2018-11-11T00:45:17.703Z,88.53
2018-11-11T00:47:46.428Z,88.77
2018-11-11T00:50:14.727Z,89.17
2018-11-11T00:52:43.065Z,86.17
2018-11-11T00:55:13.583Z,90.63
2018-11-11T00:57:42.980Z,86.07
2018-11-11T01:00:14.271Z,87.40
2018-11-11T01:02:43.223Z,91.43
2018-11-11T01:05:12.202Z,79.37
2018-11-11T01:07:41.399Z,89.03
2018-11-11T01:10:11.518Z,79.23
2018-11-11T01:12:40.347Z,76.67
2018-11-11T01:15:10.064Z,93.40
2018-11-11T01:17:38.412Z,88.73
2018-11-11T01:20:08.057Z,80.17
2018-11-11T01:22:36.513Z,75.13
2018-11-11T01:25:05.316Z,79.60
2018-11-11T01:27:33.606Z,76.67
2018-11-11T01:30:01.941Z,83.40
2018-11-11T01:32:30.090Z,82.83
2018-11-11T01:34:58.336Z,86.33
2018-11-11T01:37:26.542Z,91.57
2018-11-11T01:39:54.731Z,81.27
2018-11-11T01:42:22.908Z,83.20
2018-11-11T01:44:51.184Z,87.53
2018-11-11T01:47:19.379Z,80.27
2018-11-11T01:49:47.579Z,81.50
2018-11-11T01:52:15.789Z,82.77
2018-11-11T01:54:44.140Z,78.03
2018-11-11T01:57:12.556Z,80.07
2018-11-11T01:59:40.730Z,85.63
2018-11-11T02:02:08.904Z,77.17
2018-11-11T02:04:37.051Z,87.63
2018-11-11T02:07:05.590Z,93.77
2018-11-11T02:09:33.853Z,86.00
2018-11-11T02:12:02.048Z,79.30
2018-11-11T02:14:30.296Z,76.13
2018-11-11T02:16:58.456Z,97.60
2018-11-11T02:19:26.594Z,80.23
2018-11-11T02:21:54.770Z,90.10
2018-11-11T02:24:22.920Z,89.33
2018-11-11T02:26:51.368Z,95.33
2018-11-11T02:29:19.500Z,95.10
2018-11-11T02:31:47.702Z,86.73
2018-11-11T02:34:15.846Z,88.07
2018-11-11T02:36:44.019Z,92.97
2018-11-11T02:41:46.661Z,91.63
2018-11-11T02:44:14.825Z,89.37
2018-11-11T02:46:42.997Z,89.90
2018-11-11T02:49:11.144Z,89.97
2018-11-11T02:51:39.279Z,83.80
2018-11-11T02:54:07.413Z,87.03
2018-11-11T02:56:35.550Z,87.77
2018-11-11T02:59:03.694Z,92.53
2018-11-11T03:01:31.823Z,88.00
2018-11-11T03:04:00.001Z,86.23
2018-11-11T03:06:28.184Z,92.03
2018-11-11T03:08:56.331Z,79.77
2018-11-11T03:11:24.559Z,85.43
2018-11-11T03:13:52.766Z,89.20
2018-11-11T03:16:20.957Z,92.40
2018-11-11T03:18:49.093Z,73.37
2018-11-11T03:21:17.281Z,93.10
2018-11-11T03:23:45.416Z,76.50
2018-11-11T03:26:13.587Z,88.17
2018-11-11T03:28:41.793Z,83.50
2018-11-11T03:31:09.971Z,79.70
2018-11-11T03:33:38.296Z,78.73
2018-11-11T03:36:06.443Z,77.90
2018-11-11T03:38:34.599Z,80.97
2018-11-11T03:41:02.777Z,74.13
2018-11-11T03:43:30.961Z,77.60
2018-11-11T03:45:59.135Z,82.60
2018-11-11T03:48:27.295Z,82.73
2018-11-11T03:50:55.467Z,74.37
2018-11-11T03:53:23.639Z,80.63
2018-11-11T03:55:51.809Z,73.63
2018-11-11T03:58:20.015Z,78.87
2018-11-11T04:00:48.189Z,77.47
2018-11-11T04:03:16.345Z,78.60
2018-11-11T04:05:44.497Z,77.30
2018-11-11T04:08:12.616Z,76.07
2018-11-11T04:10:40.883Z,74.40
2018-11-11T04:13:09.060Z,80.80
2018-11-11T04:15:37.235Z,73.87
2018-11-11T04:18:05.766Z,73.50
2018-11-11T04:20:33.885Z,81.30
2018-11-11T04:23:02.047Z,81.73
2018-11-11T04:25:30.255Z,72.87
2018-11-11T04:27:58.475Z,82.20
2018-11-11T04:30:26.667Z,83.37
2018-11-11T04:32:54.771Z,67.50
2018-11-11T04:35:22.967Z,86.27
2018-11-11T04:37:51.171Z,73.33
2018-11-11T04:40:19.313Z,83.40
2018-11-11T04:42:47.445Z,76.90
2018-11-11T04:45:16.457Z,76.70
2018-11-11T04:47:45.408Z,73.23
2018-11-11T04:50:14.765Z,75.83
2018-11-11T04:52:43.517Z,75.67
2018-11-11T04:55:11.933Z,79.27
2018-11-11T04:57:40.584Z,81.80
2018-11-11T05:00:10.230Z,75.77
2018-11-11T05:02:38.603Z,67.03
2018-11-11T05:05:07.291Z,78.97
2018-11-11T05:07:35.410Z,73.93
2018-11-11T05:10:03.846Z,72.30
2018-11-11T05:12:32.012Z,79.63
2018-11-11T05:15:00.193Z,72.20
2018-11-11T05:17:28.363Z,72.90
2018-11-11T05:19:56.518Z,74.30
2018-11-11T05:22:24.673Z,67.60
2018-11-11T05:24:52.824Z,68.53
2018-11-11T05:27:20.988Z,70.63
2018-11-11T05:29:49.164Z,68.37
2018-11-11T05:32:17.291Z,64.70
2018-11-11T05:34:45.488Z,65.13
2018-11-11T05:37:13.652Z,75.73
2018-11-11T05:39:41.962Z,71.03
2018-11-11T05:42:10.410Z,70.40
2018-11-11T05:44:38.766Z,82.63
2018-11-11T05:47:07.430Z,71.70
2018-11-11T05:49:35.988Z,72.40
2018-11-11T05:52:04.365Z,76.40
2018-11-11T05:54:32.746Z,70.97
2018-11-11T05:57:01.075Z,69.80
2018-11-11T05:59:29.440Z,72.00
2018-11-11T06:01:59.214Z,74.80
2018-11-11T06:04:27.482Z,79.33
2018-11-11T06:06:55.862Z,73.27
2018-11-11T06:09:24.197Z,76.53
2018-11-11T06:11:52.808Z,74.63
2018-11-11T06:14:21.168Z,71.40
2018-11-11T06:16:49.468Z,78.03
2018-11-11T06:19:18.048Z,71.30
2018-11-11T06:21:46.380Z,73.30
2018-11-11T06:24:14.733Z,65.47
2018-11-11T06:26:43.022Z,69.47
2018-11-11T06:29:11.242Z,68.70
2018-11-11T06:31:39.505Z,73.53
2018-11-11T06:34:07.806Z,65.53
2018-11-11T06:36:36.076Z,72.00
2018-11-11T06:39:06.324Z,70.70
2018-11-11T06:41:34.622Z,68.13
2018-11-11T06:44:03.165Z,77.90
2018-11-11T06:46:31.406Z,67.67
2018-11-11T06:48:59.608Z,65.63
2018-11-11T06:51:28.019Z,71.60
2018-11-11T06:53:56.767Z,74.90
2018-11-11T06:56:25.113Z,72.57
2018-11-11T06:58:53.856Z,71.33
2018-11-11T07:01:22.281Z,78.47
2018-11-11T07:03:58.458Z,80.70
2018-11-11T07:06:27.923Z,69.67
2018-11-11T07:08:56.225Z,66.77
2018-11-11T07:11:24.670Z,70.37
2018-11-11T07:13:53.818Z,73.60
2018-11-11T07:16:22.186Z,76.73
2018-11-11T07:18:50.560Z,69.23
2018-11-11T07:21:19.218Z,72.47
2018-11-11T07:23:47.937Z,72.47
2018-11-11T07:26:16.127Z,70.33
2018-11-11T07:28:44.345Z,77.77
2018-11-11T07:31:12.555Z,68.50
2018-11-11T07:33:40.787Z,71.80
2018-11-11T07:36:10.004Z,70.30
2018-11-11T07:38:38.170Z,75.23
2018-11-11T07:41:06.565Z,64.17
2018-11-11T07:43:34.895Z,67.10
2018-11-11T07:46:03.436Z,64.90
2018-11-11T07:48:31.772Z,71.63
2018-11-11T07:51:00.121Z,79.67
2018-11-11T07:53:28.772Z,67.10
2018-11-11T07:55:57.141Z,68.57
2018-11-11T07:58:25.450Z,70.23
2018-11-11T08:00:53.637Z,66.47
2018-11-11T08:03:21.883Z,76.80
2018-11-11T08:05:50.559Z,70.37
2018-11-11T08:08:18.907Z,74.07
2018-11-11T08:10:58.849Z,73.33
2018-11-11T08:13:27.241Z,70.90
2018-11-11T08:15:55.878Z,67.13
2018-11-11T08:18:24.092Z,78.43
2018-11-11T08:20:52.546Z,67.63
2018-11-11T08:23:20.813Z,65.57
2018-11-11T08:25:49.591Z,73.23
2018-11-11T08:28:18.101Z,64.03
2018-11-11T08:30:46.529Z,63.37
2018-11-11T08:33:14.963Z,79.30
2018-11-11T08:35:43.188Z,66.77
2018-11-11T08:38:11.393Z,63.40
2018-11-11T08:40:40.514Z,68.47
2018-11-11T08:43:09.433Z,67.73
2018-11-11T08:45:38.049Z,66.20
2018-11-11T08:48:06.393Z,62.30
2018-11-11T08:50:34.544Z,58.83
2018-11-11T08:53:02.895Z,67.07
2018-11-11T08:55:31.139Z,72.30
2018-11-11T08:57:59.796Z,66.40
2018-11-11T09:00:27.977Z,61.80
2018-11-11T09:02:56.201Z,70.50
2018-11-11T09:05:24.418Z,63.53
2018-11-11T09:07:52.597Z,63.27
2018-11-11T09:10:20.891Z,59.77
2018-11-11T09:12:49.070Z,64.37
2018-11-11T09:15:17.309Z,62.23
2018-11-11T09:17:45.515Z,59.17
2018-11-11T09:20:15.234Z,69.40
2018-11-11T09:22:43.498Z,58.13
2018-11-11T09:25:11.881Z,58.03
2018-11-11T09:27:41.233Z,62.50
2018-11-11T09:30:11.464Z,61.80
2018-11-11T09:32:39.757Z,64.00
2018-11-11T09:35:08.188Z,66.53
2018-11-11T09:37:36.646Z,68.00
2018-11-11T09:40:05.272Z,65.97
2018-11-11T09:42:33.717Z,67.30
2018-11-11T09:45:02.240Z,61.60
2018-11-11T09:47:30.614Z,62.20
2018-11-11T09:49:59.130Z,63.30
2018-11-11T09:52:27.354Z,63.20
2018-11-11T09:54:55.566Z,61.10
2018-11-11T09:57:23.930Z,68.90
2018-11-11T09:59:52.210Z,66.67
2018-11-11T10:02:20.380Z,60.87
2018-11-11T10:05:05.963Z,58.77
2018-11-11T10:07:37.962Z,72.03
2018-11-11T10:10:11.328Z,60.50
2018-11-11T10:12:48.928Z,59.93
2018-11-11T10:15:26.104Z,68.97
2018-11-11T10:19:02.604Z,68.20
2018-11-11T10:21:36.352Z,63.43
2018-11-11T10:24:10.118Z,63.37
2018-11-11T10:26:43.502Z,63.50
2018-11-11T10:29:18.212Z,78.13
2018-11-11T10:31:50.270Z,66.80
2018-11-11T10:34:24.841Z,65.87
2018-11-11T10:37:04.830Z,63.73
2018-11-11T10:39:36.127Z,61.50
2018-11-11T10:42:06.960Z,58.13
2018-11-11T10:44:39.537Z,71.03
2018-11-11T10:47:11.841Z,59.90
2018-11-11T10:49:42.782Z,63.93
2018-11-11T10:52:11.095Z,61.77
2018-11-11T10:54:39.273Z,66.77
2018-11-11T10:57:07.495Z,59.57
2018-11-11T10:59:35.693Z,61.80
2018-11-11T11:02:09.421Z,61.97
2018-11-11T11:04:43.096Z,55.50
2018-11-11T11:07:11.376Z,62.40
2018-11-11T11:09:39.607Z,59.97
2018-11-11T11:12:07.782Z,60.10
2018-11-11T11:14:35.979Z,62.50
2018-11-11T11:17:04.187Z,62.50
2018-11-11T11:19:32.455Z,55.70
2018-11-11T11:22:00.653Z,59.00
2018-11-11T11:24:28.929Z,52.43
2018-11-11T11:26:57.293Z,56.83
2018-11-11T11:29:25.489Z,58.47
2018-11-11T11:32:00.157Z,57.07
2018-11-11T11:34:28.418Z,57.13
2018-11-11T11:36:56.666Z,59.00
2018-11-11T11:39:24.877Z,58.17
2018-11-11T11:41:53.045Z,53.77
2018-11-11T11:44:21.234Z,59.13
2018-11-11T11:46:49.383Z,58.53
2018-11-11T11:49:17.887Z,56.77
2018-11-11T11:51:46.161Z,57.23
2018-11-11T11:54:14.289Z,59.77
2018-11-11T11:56:42.487Z,58.93
2018-11-11T11:59:10.641Z,63.20
2018-11-11T12:01:38.815Z,62.73
2018-11-11T12:04:07.015Z,63.07
2018-11-11T12:06:35.223Z,65.57
2018-11-11T12:09:04.810Z,57.87
2018-11-11T12:11:32.969Z,61.90
2018-11-11T12:14:02.103Z,61.63
2018-11-11T12:16:30.307Z,62.97
2018-11-11T12:18:58.739Z,64.30
2018-11-11T12:21:27.930Z,69.07
2018-11-11T12:23:56.317Z,65.30
2018-11-11T12:26:24.850Z,69.50
2018-11-11T12:28:53.196Z,71.73
2018-11-11T12:31:21.343Z,77.07
2018-11-11T12:33:49.502Z,72.30
2018-11-11T12:36:17.674Z,61.50
2018-11-11T12:38:46.365Z,62.03
2018-11-11T12:41:14.598Z,61.97
2018-11-11T12:43:42.739Z,51.50
2018-11-11T12:46:11.020Z,56.30
2018-11-11T12:48:39.512Z,56.33
2018-11-11T12:51:07.647Z,49.40
2018-11-11T12:53:35.869Z,50.20
2018-11-11T12:56:04.034Z,56.50
2018-11-11T12:58:32.204Z,51.70
2018-11-11T13:01:00.420Z,54.37
2018-11-11T13:03:28.595Z,60.33
2018-11-11T13:05:56.699Z,62.50
2018-11-11T13:08:24.874Z,51.63
2018-11-11T13:10:53.075Z,47.67
2018-11-11T13:13:21.262Z,43.07
2018-11-11T13:15:51.756Z,41.17
2018-11-11T13:18:20.002Z,41.97
2018-11-11T13:20:48.178Z,41.90
2018-11-11T13:23:16.455Z,43.67
2018-11-11T13:25:44.686Z,38.77
2018-11-11T13:28:13.470Z,39.13
2018-11-11T13:30:42.058Z,38.53
2018-11-11T13:33:11.090Z,37.57
2018-11-11T13:35:39.301Z,41.50
2018-11-11T13:38:07.682Z,36.60
2018-11-11T13:40:36.026Z,36.63
2018-11-11T13:43:04.222Z,37.83
2018-11-11T13:45:32.696Z,35.27
2018-11-11T13:48:00.886Z,32.80
2018-11-11T13:50:29.092Z,38.67
2018-11-11T13:52:57.322Z,37.53
2018-11-11T13:55:25.516Z,36.23
2018-11-11T13:57:53.852Z,35.47
2018-11-11T14:00:24.465Z,34.87
2018-11-11T14:02:52.860Z,30.67
2018-11-11T14:05:21.086Z,32.63
2018-11-11T14:07:49.346Z,31.83
2018-11-11T14:10:17.834Z,34.90
2018-11-11T14:12:46.186Z,33.27
2018-11-11T14:15:18.650Z,34.27
2018-11-11T14:17:47.496Z,31.63
2018-11-11T14:20:16.891Z,39.10
2018-11-11T14:22:46.186Z,33.83
2018-11-11T14:25:17.113Z,31.07
2018-11-11T14:27:45.602Z,32.87
2018-11-11T14:30:16.862Z,32.03
2018-11-11T14:32:45.695Z,30.67
2018-11-11T14:35:14.307Z,31.03
2018-11-11T14:37:43.088Z,32.53
2018-11-11T14:40:14.439Z,31.50
2018-11-11T14:42:42.798Z,34.30
2018-11-11T14:45:12.550Z,32.33
2018-11-11T14:47:41.714Z,32.83
2018-11-11T14:50:12.616Z,32.67
2018-11-11T14:52:41.967Z,33.97
2018-11-11T14:55:14.388Z,29.90
2018-11-11T14:57:42.681Z,32.90
2018-11-11T15:00:16.541Z,36.00
2018-11-11T15:02:48.444Z,38.40
2018-11-11T15:05:16.706Z,33.67
2018-11-11T15:07:44.931Z,32.23
2018-11-11T15:10:13.707Z,29.07
2018-11-11T15:12:42.341Z,27.90
2018-11-11T15:15:14.275Z,26.90
2018-11-11T15:17:42.954Z,29.83
2018-11-11T15:20:13.361Z,26.83
2018-11-11T15:22:41.563Z,25.90
2018-11-11T15:25:12.875Z,28.63
2018-11-11T15:27:42.091Z,27.50
2018-11-11T15:30:13.035Z,24.77
2018-11-11T15:32:41.457Z,34.67
2018-11-11T15:35:09.669Z,24.87
2018-11-11T15:37:38.277Z,28.90
2018-11-11T15:40:08.745Z,32.60
2018-11-11T15:42:37.225Z,28.27
2018-11-11T15:45:08.098Z,27.13
2018-11-11T15:47:36.341Z,29.93
2018-11-11T15:50:07.023Z,28.93
2018-11-11T15:52:35.244Z,28.47
2018-11-11T15:55:03.635Z,27.57
2018-11-11T15:57:31.929Z,32.70
2018-11-11T16:00:00.165Z,26.90
2018-11-11T16:02:28.475Z,26.47
2018-11-11T16:04:56.654Z,28.90
2018-11-11T16:07:24.957Z,32.10
2018-11-11T16:09:53.199Z,24.73
2018-11-11T16:12:21.567Z,33.57
2018-11-11T16:14:49.750Z,32.03
2018-11-11T16:17:18.096Z,26.03
2018-11-11T16:19:47.040Z,26.90
2018-11-11T16:22:15.300Z,29.00
2018-11-11T16:24:43.545Z,28.33
2018-11-11T16:27:12.215Z,32.87
2018-11-11T16:29:40.559Z,33.03
2018-11-11T16:32:08.859Z,36.87
2018-11-11T16:34:37.028Z,33.50
2018-11-11T16:37:05.922Z,33.57
2018-11-11T16:39:34.146Z,29.33
2018-11-11T16:42:02.388Z,38.30
2018-11-11T16:44:30.575Z,39.53
2018-11-11T16:46:58.833Z,34.63
2018-11-11T16:49:27.144Z,33.00
2018-11-11T16:51:55.348Z,35.17
2018-11-11T16:54:23.681Z,35.90
2018-11-11T16:56:51.996Z,32.40
2018-11-11T16:59:20.303Z,42.07
2018-11-11T17:01:48.525Z,55.03
2018-11-11T17:04:16.822Z,46.90
2018-11-11T17:06:45.072Z,41.63
2018-11-11T17:09:14.476Z,33.90
2018-11-11T17:11:42.730Z,36.53
2018-11-11T17:14:11.340Z,36.40
2018-11-11T17:16:42.756Z,32.37
2018-11-11T17:19:11.019Z,31.67
2018-11-11T17:21:39.420Z,37.93
2018-11-11T17:24:07.629Z,39.67
2018-11-11T17:26:35.907Z,40.20
2018-11-11T17:29:04.271Z,43.80
2018-11-11T17:31:32.576Z,35.93
2018-11-11T17:34:00.884Z,33.33
2018-11-11T17:36:29.209Z,32.60
2018-11-11T17:38:57.604Z,31.30
2018-11-11T17:41:25.884Z,31.57
2018-11-11T17:43:54.138Z,39.23
2018-11-11T17:46:22.536Z,33.63
2018-11-11T17:48:51.177Z,38.07
2018-11-11T17:51:19.234Z,28.67
2018-11-11T17:53:47.474Z,31.57
2018-11-11T17:56:15.688Z,27.60
2018-11-11T17:58:43.928Z,28.37
2018-11-11T18:01:12.157Z,29.77
2018-11-11T18:03:40.758Z,28.97
2018-11-11T18:06:09.615Z,25.70
2018-11-11T18:08:38.024Z,23.33
2018-11-11T18:11:06.555Z,24.30
2018-11-11T18:13:35.384Z,23.70
2018-11-11T18:16:03.856Z,19.57
2018-11-11T18:18:32.228Z,23.33
2018-11-11T18:21:00.838Z,20.27
2018-11-11T18:23:29.196Z,20.77
2018-11-11T18:25:57.442Z,21.70
2018-11-11T18:28:25.871Z,18.50
2018-11-11T18:30:54.226Z,20.00
2018-11-11T18:33:22.668Z,17.20
2018-11-11T18:35:51.078Z,17.30
2018-11-11T18:38:19.704Z,16.37
2018-11-11T18:40:48.085Z,14.83
2018-11-11T18:43:16.478Z,18.73
2018-11-11T18:45:45.014Z,17.30
2018-11-11T18:48:13.467Z,19.50
2018-11-11T18:50:41.878Z,13.77
2018-11-11T18:53:10.437Z,19.30
2018-11-11T18:55:38.829Z,18.00
2018-11-11T18:58:07.686Z,16.60
2018-11-11T19:00:36.230Z,15.90
2018-11-11T19:03:04.669Z,12.27
2018-11-11T19:05:33.187Z,16.43
2018-11-11T19:08:02.026Z,25.20
2018-11-11T19:10:32.895Z,16.83
2018-11-11T19:13:04.586Z,15.93
2018-11-11T19:15:32.938Z,27.13
2018-11-11T19:18:01.534Z,20.97
2018-11-11T19:20:30.242Z,18.20
2018-11-11T19:22:58.861Z,20.70
2018-11-11T19:25:28.773Z,16.33
2018-11-11T19:27:58.004Z,19.43
2018-11-11T19:30:27.610Z,20.63
2018-11-11T19:32:56.977Z,34.43
2018-11-11T19:35:25.542Z,44.20
2018-11-11T19:37:55.247Z,19.63
2018-11-11T19:40:25.386Z,31.63
2018-11-11T19:42:54.712Z,18.13
2018-11-11T19:45:24.884Z,33.70
2018-11-11T19:47:53.215Z,20.43
2018-11-11T19:50:23.333Z,17.67
2018-11-11T19:52:53.329Z,42.17
2018-11-11T19:55:22.108Z,20.03
2018-11-11T19:57:50.496Z,19.07
2018-11-11T20:00:22.176Z,16.57
2018-11-11T20:02:51.278Z,16.63
2018-11-11T20:05:20.606Z,21.10
2018-11-11T20:07:50.072Z,18.10
2018-11-11T20:10:19.610Z,20.90
2018-11-11T20:12:48.392Z,18.13
2018-11-11T20:15:20.056Z,19.97
2018-11-11T20:17:49.222Z,14.87
2018-11-11T20:20:19.828Z,15.03
2018-11-11T20:22:49.310Z,14.60
2018-11-11T20:25:19.482Z,14.33
2018-11-11T20:27:48.092Z,14.77
2018-11-11T20:30:19.862Z,15.97
2018-11-11T20:32:48.439Z,14.27
2018-11-11T20:35:18.954Z,18.80
2018-11-11T20:37:47.426Z,16.83
2018-11-11T20:40:17.474Z,16.67
2018-11-11T20:42:47.344Z,20.20
2018-11-11T20:45:17.112Z,16.80
2018-11-11T20:47:46.007Z,19.17
2018-11-11T20:50:16.608Z,22.77
2018-11-11T20:52:46.218Z,20.03
2018-11-11T20:55:15.962Z,17.13
2018-11-11T20:57:44.430Z,17.07
2018-11-11T21:00:15.460Z,16.20
2018-11-11T21:02:45.566Z,25.93
2018-11-11T21:05:15.256Z,20.60
2018-11-11T21:07:44.354Z,18.33
2018-11-11T21:10:19.240Z,19.53
2018-11-11T21:12:47.814Z,22.03
2018-11-11T21:15:18.750Z,16.97
2018-11-11T21:17:47.560Z,22.00
2018-11-11T21:20:20.949Z,16.97
2018-11-11T21:22:49.596Z,18.10
2018-11-11T21:25:18.190Z,15.97
2018-11-11T21:27:47.509Z,20.07
2018-11-11T21:30:22.338Z,20.97
2018-11-11T21:32:51.194Z,16.97
2018-11-11T21:35:19.778Z,16.50
2018-11-11T21:37:48.605Z,15.60
2018-11-11T21:40:19.788Z,14.53
2018-11-11T21:42:49.820Z,19.23
2018-11-11T21:45:19.500Z,20.20
2018-11-11T21:47:47.988Z,19.93
2018-11-11T21:50:23.086Z,19.60
2018-11-11T21:53:00.872Z,17.57
2018-11-11T21:55:29.122Z,20.43
2018-11-11T21:57:57.454Z,20.27
2018-11-11T22:00:25.725Z,18.37
2018-11-11T22:02:54.244Z,19.87
2018-11-11T22:05:22.425Z,24.27
2018-11-11T22:07:50.684Z,20.90
2018-11-11T22:10:19.396Z,19.43
2018-11-11T22:12:48.951Z,23.17
2018-11-11T22:15:17.561Z,18.50
2018-11-11T22:17:48.191Z,20.67
2018-11-11T22:20:16.817Z,20.67
2018-11-11T22:22:45.039Z,18.13
2018-11-11T22:25:13.272Z,16.43
2018-11-11T22:27:41.735Z,18.83
2018-11-11T22:30:11.284Z,20.00
2018-11-11T22:32:40.000Z,19.03
2018-11-11T22:35:09.591Z,18.03
2018-11-11T22:37:37.946Z,18.40
2018-11-11T22:40:07.624Z,17.77
2018-11-11T22:42:36.107Z,22.23
2018-11-11T22:45:04.758Z,21.77
2018-11-11T22:47:32.922Z,20.87
2018-11-11T22:50:01.241Z,20.47
2018-11-11T22:52:30.282Z,20.17
2018-11-11T22:54:58.845Z,18.17
2018-11-11T22:57:27.083Z,18.43
2018-11-11T22:59:55.347Z,20.27
2018-11-11T23:02:23.575Z,20.17
2018-11-11T23:04:51.930Z,21.03
2018-11-11T23:07:20.053Z,24.43
2018-11-11T23:09:48.764Z,19.60
2018-11-11T23:12:17.715Z,18.90
2018-11-11T23:14:45.951Z,20.23
2018-11-11T23:17:14.285Z,20.60
2018-11-11T23:19:42.733Z,19.40
2018-11-11T23:22:11.091Z,19.23
2018-11-11T23:24:39.584Z,22.50
2018-11-11T23:27:08.029Z,18.40
2018-11-11T23:29:36.215Z,24.90
2018-11-11T23:32:04.677Z,20.20
2018-11-11T23:34:32.810Z,24.50
2018-11-11T23:37:01.435Z,19.30
2018-11-11T23:39:29.749Z,19.27
2018-11-11T23:41:58.027Z,19.60
2018-11-11T23:44:27.409Z,19.07
2018-11-11T23:46:55.784Z,20.53
2018-11-11T23:49:23.999Z,20.20
2018-11-11T23:51:52.171Z,21.90
2018-11-11T23:54:20.529Z,19.00
2018-11-11T23:56:50.993Z,23.70
2018-11-11T23:59:19.885Z,18.97
